Time;durP1;ratioP1;P1;durP2;ratioP2;P2;SDS_P1;SDS_P2;PMS_P1;PMS_P2;Temp;Humidity;BMP_temperature;BMP_pressure;BME280_temperature;BME280_humidity;BME280_pressure;Samples;Min_cycle;Max_cycle;Signal;HPM_P1;HPM_P2
2023/06/26 00:00:20;;;;;;;8.90;7.20;;;24.30;90.30;;;;;;5062521;28;20032;-56
2023/06/26 00:02:46;;;;;;;8.07;7.28;;;24.30;90.70;;;;;;5062435;28;20083;-56
2023/06/26 00:05:13;;;;;;;8.38;7.38;;;24.30;91.00;;;;;;5069251;28;20444;-56
2023/06/26 00:07:39;;;;;;;9.57;7.43;;;24.20;90.60;;;;;;5081844;28;20583;-56
2023/06/26 00:10:05;;;;;;;9.45;7.47;;;24.20;90.80;;;;;;5077984;28;20060;-56
2023/06/26 00:12:31;;;;;;;10.07;7.75;;;24.10;90.90;;;;;;5062882;28;20037;-56
2023/06/26 00:14:58;;;;;;;10.07;8.00;;;24.10;90.90;;;;;;5062443;28;20105;-56
2023/06/26 00:17:23;;;;;;;9.35;7.78;;;24.00;91.00;;;;;;5060599;28;20124;-56
2023/06/26 00:19:50;;;;;;;8.75;7.85;;;24.00;91.30;;;;;;5062219;28;20076;-57
2023/06/26 00:22:16;;;;;;;8.90;8.00;;;23.90;91.20;;;;;;5068231;28;20050;-56
2023/06/26 00:24:42;;;;;;;10.02;7.90;;;23.90;91.20;;;;;;5081919;28;20048;-56
2023/06/26 00:27:07;;;;;;;10.32;8.45;;;23.80;91.40;;;;;;5079962;28;20045;-56
2023/06/26 00:29:33;;;;;;;12.00;8.68;;;23.80;91.40;;;;;;5080631;28;20044;-56
2023/06/26 00:31:59;;;;;;;9.30;8.20;;;23.80;91.40;;;;;;5081989;28;20055;-56
2023/06/26 00:34:24;;;;;;;11.88;9.02;;;23.80;91.50;;;;;;5080414;28;20045;-57
2023/06/26 00:36:50;;;;;;;10.02;8.88;;;23.70;91.60;;;;;;5081599;28;20062;-56
2023/06/26 00:39:16;;;;;;;9.52;8.52;;;23.70;91.80;;;;;;5079595;28;20096;-57
2023/06/26 00:41:41;;;;;;;9.85;8.82;;;23.60;91.90;;;;;;5079672;28;20040;-56
2023/06/26 00:44:07;;;;;;;10.57;8.63;;;23.60;92.20;;;;;;5061718;28;20069;-55
2023/06/26 00:46:34;;;;;;;11.38;8.35;;;23.60;92.00;;;;;;5068976;28;20508;-56
2023/06/26 00:49:03;;;;;;;9.32;8.43;;;23.50;92.00;;;;;;5075971;28;20041;-56
2023/06/26 00:51:29;;;;;;;10.75;9.02;;;23.60;92.00;;;;;;5064977;28;20041;-56
2023/06/26 00:53:56;;;;;;;9.75;8.75;;;23.50;92.10;;;;;;5071154;28;20045;-56
2023/06/26 00:56:22;;;;;;;10.18;9.15;;;23.50;92.30;;;;;;5072041;28;20073;-56
2023/06/26 00:58:48;;;;;;;16.30;9.30;;;23.50;92.20;;;;;;5071118;28;20138;-56
2023/06/26 01:01:16;;;;;;;9.65;8.50;;;23.50;92.20;;;;;;5062574;28;20059;-56
2023/06/26 01:03:43;;;;;;;10.27;9.05;;;23.50;92.30;;;;;;5070343;28;20052;-56
2023/06/26 01:06:12;;;;;;;9.65;8.70;;;23.40;92.30;;;;;;5075486;28;20052;-56
2023/06/26 01:08:40;;;;;;;10.35;9.35;;;23.40;92.40;;;;;;5060791;28;20122;-54
2023/06/26 01:11:06;;;;;;;9.80;8.52;;;23.40;92.40;;;;;;5070290;28;20465;-56
2023/06/26 01:13:33;;;;;;;10.73;9.52;;;23.30;92.60;;;;;;5073449;28;20066;-56
2023/06/26 01:15:59;;;;;;;10.27;9.18;;;23.30;92.30;;;;;;5067120;28;20059;-56
2023/06/26 01:18:26;;;;;;;10.40;9.07;;;23.30;92.20;;;;;;5070393;28;20119;-56
2023/06/26 01:20:52;;;;;;;11.15;9.40;;;23.30;92.20;;;;;;5077599;28;20075;-55
2023/06/26 01:23:36;;;;;;;10.98;9.27;;;23.30;92.10;;;;;;5076150;28;20044;-55
2023/06/26 01:26:07;;;;;;;12.05;9.73;;;23.20;92.30;;;;;;5062086;28;20169;-56
2023/06/26 01:28:41;;;;;;;12.00;10.57;;;23.20;92.40;;;;;;5080518;28;20056;-57
2023/06/26 01:31:08;;;;;;;10.95;9.85;;;23.20;92.70;;;;;;5079750;28;20063;-55
2023/06/26 01:33:34;;;;;;;10.43;9.38;;;23.20;92.60;;;;;;5077302;28;20040;-55
2023/06/26 01:36:01;;;;;;;11.80;10.10;;;23.10;92.60;;;;;;5077022;28;20068;-56
2023/06/26 01:38:27;;;;;;;10.70;9.55;;;23.10;92.70;;;;;;5059024;28;20037;-57
2023/06/26 01:40:53;;;;;;;12.63;10.02;;;23.10;92.80;;;;;;5066197;28;20079;-56
2023/06/26 01:43:31;;;;;;;9.80;8.80;;;23.00;92.90;;;;;;5063255;28;20124;-56
2023/06/26 01:46:05;;;;;;;15.73;10.90;;;23.00;93.10;;;;;;5078378;28;20041;-57
2023/06/26 01:48:44;;;;;;;11.65;9.88;;;22.90;93.20;;;;;;5063298;28;20064;-56
2023/06/26 01:51:12;;;;;;;12.57;9.95;;;22.80;93.40;;;;;;5059185;28;20037;-56
2023/06/26 01:53:44;;;;;;;13.65;10.32;;;22.80;93.40;;;;;;5062782;28;20033;-57
2023/06/26 01:56:15;;;;;;;11.30;10.10;;;22.80;93.40;;;;;;5074736;28;20155;-54
2023/06/26 01:58:45;;;;;;;12.73;10.57;;;22.70;93.30;;;;;;5073711;28;20292;-58
2023/06/26 02:01:11;;;;;;;12.77;11.48;;;22.70;93.30;;;;;;5069367;28;20045;-56
2023/06/26 02:03:36;;;;;;;13.07;10.90;;;22.70;93.30;;;;;;5059312;28;20041;-55
2023/06/26 02:06:02;;;;;;;16.40;11.30;;;22.70;93.30;;;;;;5061999;28;20511;-56
2023/06/26 02:08:28;;;;;;;12.35;11.05;;;22.60;93.30;;;;;;5078187;28;20071;-56
2023/06/26 02:10:53;;;;;;;11.95;10.52;;;22.60;93.40;;;;;;5079935;28;20048;-56
2023/06/26 02:13:19;;;;;;;12.60;11.40;;;22.60;93.50;;;;;;5071906;28;20644;-57
2023/06/26 02:15:45;;;;;;;11.82;10.63;;;22.50;93.90;;;;;;5060863;28;20029;-56
2023/06/26 02:18:10;;;;;;;12.75;11.02;;;22.60;93.70;;;;;;5078252;28;20082;-56
2023/06/26 02:20:36;;;;;;;14.75;11.40;;;22.50;93.70;;;;;;5079048;28;20051;-55
2023/06/26 02:23:02;;;;;;;11.73;10.52;;;22.50;93.80;;;;;;5079007;28;20040;-56
2023/06/26 02:25:27;;;;;;;12.68;11.18;;;22.50;93.90;;;;;;5076524;28;20041;-56
2023/06/26 02:33:12;;;;;;;12.82;11.30;;;22.50;94.10;;;;;;5051789;28;20057;-56
2023/06/26 02:35:37;;;;;;;13.43;11.30;;;22.40;94.20;;;;;;5057541;28;20087;-56
2023/06/26 02:38:21;;;;;;;13.50;10.77;;;22.40;94.10;;;;;;5070908;28;20482;-56
2023/06/26 02:40:47;;;;;;;11.77;10.40;;;22.40;94.30;;;;;;5076171;28;20044;-56
2023/06/26 02:43:13;;;;;;;11.32;10.23;;;22.40;94.30;;;;;;5057116;28;20041;-56
2023/06/26 02:45:38;;;;;;;10.80;9.80;;;22.40;94.40;;;;;;5060611;28;20055;-56
2023/06/26 02:48:04;;;;;;;11.82;10.63;;;22.40;94.50;;;;;;5058706;28;20393;-55
2023/06/26 02:50:30;;;;;;;12.48;10.38;;;22.40;94.50;;;;;;5059188;28;20102;-56
2023/06/26 02:52:55;;;;;;;11.93;10.27;;;22.40;94.60;;;;;;5070565;28;20036;-56
2023/06/26 02:55:21;;;;;;;13.10;10.60;;;22.40;94.60;;;;;;5058411;28;20065;-56
2023/06/26 02:57:47;;;;;;;14.02;11.15;;;22.40;94.70;;;;;;5059410;28;20041;-56
2023/06/26 03:00:13;;;;;;;11.18;9.98;;;22.40;94.80;;;;;;5057620;28;20059;-56
2023/06/26 03:02:39;;;;;;;12.10;10.65;;;22.40;94.90;;;;;;5061228;28;20036;-56
2023/06/26 03:05:05;;;;;;;13.25;10.35;;;22.40;95.00;;;;;;5067885;28;20043;-56
2023/06/26 03:07:30;;;;;;;13.88;11.27;;;22.30;95.10;;;;;;5079025;28;20053;-57
2023/06/26 03:09:56;;;;;;;12.77;11.13;;;22.30;95.20;;;;;;5078493;28;20037;-56
2023/06/26 03:12:22;;;;;;;14.88;11.63;;;22.30;95.40;;;;;;5074693;28;20040;-56
2023/06/26 03:14:48;;;;;;;12.18;10.98;;;22.20;95.50;;;;;;5066447;28;20469;-55
2023/06/26 03:17:13;;;;;;;13.88;11.13;;;22.20;95.50;;;;;;5061337;28;20116;-56
2023/06/26 03:19:39;;;;;;;12.57;11.27;;;22.20;95.70;;;;;;5063133;28;20045;-56
2023/06/26 03:22:05;;;;;;;12.20;10.13;;;22.20;96.10;;;;;;5075362;28;20479;-56
2023/06/26 03:24:30;;;;;;;11.75;10.18;;;22.10;96.60;;;;;;5073720;28;20040;-56
2023/06/26 03:26:56;;;;;;;17.08;10.07;;;22.10;96.60;;;;;;5062368;28;20041;-57
2023/06/26 03:29:22;;;;;;;10.50;8.38;;;22.10;97.00;;;;;;5067771;28;20036;-56
2023/06/26 03:31:47;;;;;;;11.20;8.63;;;22.10;97.20;;;;;;5067837;28;20056;-56
2023/06/26 03:34:13;;;;;;;10.50;8.15;;;22.10;97.40;;;;;;5071071;28;20056;-55
2023/06/26 03:36:39;;;;;;;9.90;7.97;;;22.10;97.80;;;;;;5070091;28;20045;-56
2023/06/26 03:39:04;;;;;;;10.70;7.57;;;22.10;97.90;;;;;;5058106;28;20474;-57
2023/06/26 03:41:30;;;;;;;9.88;6.97;;;22.20;98.20;;;;;;5070201;28;20047;-56
2023/06/26 03:43:56;;;;;;;8.38;6.80;;;22.20;98.40;;;;;;5072600;28;20060;-56
2023/06/26 03:46:22;;;;;;;9.35;7.72;;;22.20;98.60;;;;;;5060380;28;20056;-57
2023/06/26 03:48:48;;;;;;;12.23;7.30;;;22.20;98.80;;;;;;5058890;28;20061;-56
2023/06/26 03:51:14;;;;;;;12.18;7.30;;;22.20;99.20;;;;;;5057520;28;20506;-56
2023/06/26 03:53:40;;;;;;;10.27;7.40;;;22.20;99.30;;;;;;5069620;28;20661;-57
2023/06/26 03:56:06;;;;;;;11.43;6.68;;;22.20;99.70;;;;;;5067848;28;20041;-56
2023/06/26 03:58:32;;;;;;;10.95;7.07;;;22.20;99.80;;;;;;5075717;28;20040;-56
2023/06/26 04:00:57;;;;;;;11.05;7.13;;;22.20;99.90;;;;;;5064561;28;20073;-57
2023/06/26 04:03:24;;;;;;;16.45;7.32;;;22.20;99.90;;;;;;5062869;28;20048;-56
2023/06/26 04:05:49;;;;;;;9.15;7.65;;;22.20;99.90;;;;;;5075119;28;20037;-56
2023/06/26 04:08:15;;;;;;;14.20;8.55;;;22.20;99.90;;;;;;5076660;28;20050;-56
2023/06/26 04:10:41;;;;;;;13.55;8.63;;;22.20;99.90;;;;;;5066608;28;20041;-56
2023/06/26 04:13:06;;;;;;;11.57;7.75;;;22.20;99.90;;;;;;5060436;28;20142;-56
2023/06/26 04:15:32;;;;;;;12.18;7.90;;;22.20;99.90;;;;;;5071391;28;20036;-56
2023/06/26 04:17:58;;;;;;;11.63;7.60;;;22.20;99.90;;;;;;5075657;28;20476;-55
2023/06/26 04:20:23;;;;;;;10.82;7.30;;;22.20;99.90;;;;;;5066606;28;20085;-56
2023/06/26 04:22:49;;;;;;;14.57;7.32;;;22.10;99.90;;;;;;5081792;28;20072;-55
2023/06/26 04:25:15;;;;;;;17.38;7.47;;;22.10;99.90;;;;;;5070689;28;20523;-56
2023/06/26 04:27:41;;;;;;;18.42;7.82;;;22.00;99.90;;;;;;5074289;28;20048;-56
2023/06/26 04:30:07;;;;;;;12.07;7.18;;;22.00;99.90;;;;;;5072720;28;20044;-57
2023/06/26 04:32:33;;;;;;;16.17;7.95;;;21.90;99.90;;;;;;5077046;28;20040;-56
2023/06/26 04:34:59;;;;;;;15.43;7.78;;;21.90;99.90;;;;;;5069383;28;20037;-56
2023/06/26 04:37:25;;;;;;;18.67;8.13;;;21.90;99.90;;;;;;5080470;28;20445;-56
2023/06/26 04:39:51;;;;;;;14.48;7.78;;;21.90;99.90;;;;;;5080848;28;20045;-55
2023/06/26 04:42:17;;;;;;;19.52;7.68;;;21.80;99.90;;;;;;5080727;28;20051;-56
2023/06/26 04:44:43;;;;;;;15.40;7.00;;;21.90;99.90;;;;;;5081633;28;20043;-56
2023/06/26 04:47:09;;;;;;;16.25;7.55;;;21.90;99.90;;;;;;5069928;28;20072;-56
2023/06/26 04:49:35;;;;;;;16.15;7.60;;;21.80;99.90;;;;;;5080045;28;20081;-56
2023/06/26 04:52:00;;;;;;;17.63;7.35;;;21.80;99.90;;;;;;5069106;28;20071;-56
2023/06/26 04:54:27;;;;;;;19.05;7.97;;;21.80;99.90;;;;;;5061054;28;20037;-56
2023/06/26 04:56:53;;;;;;;17.13;6.85;;;21.80;99.90;;;;;;5070034;28;20045;-56
2023/06/26 04:59:19;;;;;;;15.30;7.25;;;21.80;99.90;;;;;;5079571;28;20075;-57
2023/06/26 05:01:47;;;;;;;15.65;7.25;;;21.80;99.90;;;;;;5063799;28;20041;-56
2023/06/26 05:04:15;;;;;;;15.40;7.03;;;21.70;99.90;;;;;;5060822;28;20045;-57
2023/06/26 05:06:40;;;;;;;15.45;7.18;;;21.70;99.90;;;;;;5070771;28;20033;-56
2023/06/26 05:09:06;;;;;;;14.05;6.78;;;21.60;99.90;;;;;;5068502;28;20068;-56
2023/06/26 05:11:35;;;;;;;16.85;7.05;;;21.60;99.90;;;;;;5064448;28;20047;-56
2023/06/26 05:14:01;;;;;;;20.35;7.40;;;21.60;99.90;;;;;;5080423;28;20041;-56
2023/06/26 05:16:27;;;;;;;27.40;7.57;;;21.50;99.90;;;;;;5062967;28;20097;-56
2023/06/26 05:18:54;;;;;;;18.58;7.35;;;21.50;99.90;;;;;;5080033;28;20068;-56
2023/06/26 05:21:19;;;;;;;18.20;7.10;;;21.50;99.90;;;;;;5068932;28;20060;-56
2023/06/26 05:23:47;;;;;;;14.20;6.78;;;21.50;99.90;;;;;;5079224;28;20049;-56
2023/06/26 05:26:13;;;;;;;19.45;6.78;;;21.50;99.90;;;;;;5077956;28;20039;-57
2023/06/26 05:28:39;;;;;;;15.80;7.07;;;21.40;99.90;;;;;;5079383;28;20045;-57
2023/06/26 05:31:05;;;;;;;16.00;6.78;;;21.50;99.90;;;;;;5077528;28;20037;-54
2023/06/26 05:33:34;;;;;;;14.15;6.88;;;21.50;99.90;;;;;;5076170;28;20048;-56
2023/06/26 05:36:02;;;;;;;14.80;5.80;;;21.50;99.90;;;;;;5079407;28;20048;-56
2023/06/26 05:38:28;;;;;;;14.43;5.43;;;21.60;99.90;;;;;;5078381;28;20037;-56
2023/06/26 05:40:54;;;;;;;14.50;5.25;;;21.60;99.90;;;;;;5078604;28;20162;-56
2023/06/26 05:43:21;;;;;;;14.38;4.80;;;21.60;99.90;;;;;;5077654;28;20447;-56
2023/06/26 05:45:48;;;;;;;11.57;5.10;;;21.60;99.90;;;;;;5078323;28;20083;-56
2023/06/26 05:48:14;;;;;;;21.50;4.93;;;21.50;99.90;;;;;;5073090;28;20037;-56
2023/06/26 05:50:41;;;;;;;9.45;4.35;;;21.60;99.90;;;;;;5072191;28;20096;-55
2023/06/26 05:53:08;;;;;;;9.98;4.32;;;21.60;99.90;;;;;;5072797;28;20104;-56
2023/06/26 05:55:34;;;;;;;8.73;3.67;;;21.60;99.90;;;;;;5058058;28;20044;-57
2023/06/26 05:58:01;;;;;;;7.13;3.58;;;21.50;99.90;;;;;;5076796;28;20044;-57
2023/06/26 06:00:28;;;;;;;11.07;3.20;;;21.50;99.90;;;;;;5078522;28;20528;-56
2023/06/26 06:02:54;;;;;;;7.78;3.10;;;21.50;99.90;;;;;;5064579;28;20069;-56
2023/06/26 06:05:23;;;;;;;11.00;2.83;;;21.50;99.90;;;;;;5072560;28;20038;-56
2023/06/26 06:07:49;;;;;;;7.57;2.70;;;21.40;99.90;;;;;;5066656;28;20036;-56
2023/06/26 06:10:15;;;;;;;7.88;2.67;;;21.50;99.90;;;;;;5079848;28;20036;-56
2023/06/26 06:12:41;;;;;;;9.48;2.85;;;21.50;99.90;;;;;;5077824;28;20051;-55
2023/06/26 06:15:07;;;;;;;7.45;2.55;;;21.60;99.90;;;;;;5062095;28;20614;-56
2023/06/26 06:17:33;;;;;;;15.65;2.30;;;21.70;99.90;;;;;;5072056;28;20107;-56
2023/06/26 06:19:58;;;;;;;6.70;2.35;;;21.80;99.90;;;;;;5079108;28;20047;-56
2023/06/26 06:22:24;;;;;;;7.95;2.55;;;21.80;99.90;;;;;;5079118;28;20033;-56
2023/06/26 06:24:50;;;;;;;11.13;2.67;;;21.80;99.90;;;;;;5064535;28;20049;-56
2023/06/26 06:27:16;;;;;;;7.53;2.38;;;21.80;99.90;;;;;;5071060;28;20051;-57
2023/06/26 06:29:42;;;;;;;6.75;2.72;;;21.80;99.90;;;;;;5060393;28;20072;-56
2023/06/26 06:32:08;;;;;;;9.32;2.50;;;21.70;99.90;;;;;;5079404;28;20052;-56
2023/06/26 06:34:34;;;;;;;8.70;2.72;;;21.80;99.90;;;;;;5063649;28;20045;-56
2023/06/26 06:37:00;;;;;;;14.13;2.67;;;21.90;99.90;;;;;;5068277;28;20044;-56
2023/06/26 06:39:25;;;;;;;5.35;2.40;;;22.00;99.90;;;;;;5076675;28;20048;-61
2023/06/26 06:41:51;;;;;;;8.40;2.53;;;22.20;99.90;;;;;;5073463;28;20040;-56
2023/06/26 06:44:17;;;;;;;4.60;2.20;;;22.40;99.90;;;;;;5067149;28;20064;-56
2023/06/26 06:46:43;;;;;;;8.25;2.33;;;22.40;99.90;;;;;;5071911;28;20090;-56
2023/06/26 06:49:09;;;;;;;4.68;2.35;;;22.50;99.90;;;;;;5079481;28;20045;-56
2023/06/26 06:51:34;;;;;;;4.00;2.20;;;22.50;99.90;;;;;;5077670;28;20045;-56
2023/06/26 06:54:01;;;;;;;4.78;2.20;;;22.50;99.90;;;;;;5079694;28;20127;-56
2023/06/26 06:56:26;;;;;;;8.57;2.88;;;22.40;99.90;;;;;;5075167;28;20040;-54
2023/06/26 06:58:52;;;;;;;14.02;3.00;;;22.40;99.90;;;;;;5078892;28;20063;-57
2023/06/26 07:01:18;;;;;;;5.85;2.53;;;22.30;99.90;;;;;;5079131;28;20032;-56
2023/06/26 07:03:43;;;;;;;3.70;2.30;;;22.20;99.90;;;;;;5078026;28;20040;-56
2023/06/26 07:06:09;;;;;;;9.00;2.83;;;22.30;99.90;;;;;;5076922;28;20544;-56
2023/06/26 07:08:35;;;;;;;5.20;2.20;;;22.40;99.90;;;;;;5072895;28;20092;-56
2023/06/26 07:11:01;;;;;;;7.60;2.40;;;22.70;99.90;;;;;;5064242;28;20068;-56
2023/06/26 07:13:27;;;;;;;4.93;2.30;;;22.90;99.90;;;;;;5064971;28;20048;-56
2023/06/26 07:15:52;;;;;;;10.75;2.40;;;23.00;99.90;;;;;;5056753;28;20033;-58
2023/06/26 07:18:18;;;;;;;15.10;2.72;;;23.10;99.90;;;;;;5058751;28;20069;-58
2023/06/26 07:20:44;;;;;;;7.00;2.35;;;23.10;99.90;;;;;;5061322;28;20051;-59
2023/06/26 07:23:09;;;;;;;7.47;2.63;;;23.10;99.60;;;;;;5061254;28;20132;-58
2023/06/26 07:25:36;;;;;;;7.72;2.30;;;23.00;99.50;;;;;;5058461;28;20093;-58
2023/06/26 07:28:02;;;;;;;8.25;2.20;;;22.90;99.30;;;;;;5070602;28;20045;-57
2023/06/26 07:30:27;;;;;;;15.93;2.88;;;22.90;99.30;;;;;;5062047;28;20076;-58
2023/06/26 07:32:53;;;;;;;4.90;2.20;;;23.00;99.30;;;;;;5061557;28;20053;-58
2023/06/26 07:35:19;;;;;;;6.88;2.15;;;23.00;99.00;;;;;;5057651;28;20041;-58
2023/06/26 07:37:44;;;;;;;7.45;2.42;;;22.90;99.00;;;;;;5063937;28;20041;-58
2023/06/26 07:40:10;;;;;;;7.60;2.47;;;22.80;98.90;;;;;;5062520;28;20049;-55
2023/06/26 07:42:36;;;;;;;5.32;2.05;;;22.80;98.90;;;;;;5063940;28;20131;-58
2023/06/26 07:45:09;;;;;;;22.10;3.08;;;22.90;98.70;;;;;;5064425;28;20125;-59
2023/06/26 07:47:35;;;;;;;33.13;3.15;;;22.90;98.70;;;;;;5058823;28;20093;-58
2023/06/26 07:50:01;;;;;;;8.80;2.38;;;23.00;98.80;;;;;;5064627;28;20712;-57
2023/06/26 07:52:27;;;;;;;23.02;3.30;;;23.10;98.70;;;;;;5059112;28;20048;-58
2023/06/26 07:54:52;;;;;;;17.27;3.00;;;23.20;98.60;;;;;;5064094;28;20040;-58
2023/06/26 07:57:18;;;;;;;6.70;2.45;;;23.20;98.70;;;;;;5065076;28;20065;-58
2023/06/26 07:59:44;;;;;;;7.57;2.45;;;23.40;98.70;;;;;;5060261;28;20048;-58
2023/06/26 08:02:10;;;;;;;3.60;2.10;;;23.50;97.80;;;;;;5065476;28;20048;-58
2023/06/26 08:04:35;;;;;;;8.20;2.10;;;23.70;97.50;;;;;;5039224;28;20141;-59
2023/06/26 08:07:01;;;;;;;6.47;2.58;;;23.90;97.40;;;;;;5063818;28;20052;-58
2023/06/26 08:09:28;;;;;;;4.50;2.33;;;24.10;97.30;;;;;;5063568;28;20037;-58
2023/06/26 08:11:54;;;;;;;7.35;2.33;;;24.10;97.60;;;;;;5062589;28;20036;-58
2023/06/26 08:14:20;;;;;;;6.40;2.40;;;24.10;97.00;;;;;;5068222;28;20044;-59
2023/06/26 08:16:47;;;;;;;10.82;2.67;;;24.20;96.90;;;;;;5059418;28;20037;-59
2023/06/26 08:19:14;;;;;;;9.93;2.50;;;24.40;96.50;;;;;;5069958;28;20107;-59
2023/06/26 08:21:41;;;;;;;6.60;2.70;;;24.40;96.40;;;;;;5068459;28;20060;-59
2023/06/26 08:24:07;;;;;;;6.38;2.17;;;24.50;96.10;;;;;;5068757;28;20153;-59
2023/06/26 08:26:32;;;;;;;17.13;2.92;;;24.70;95.60;;;;;;5064205;28;20052;-59
2023/06/26 08:28:58;;;;;;;11.38;2.38;;;24.80;95.40;;;;;;5062200;28;20045;-58
2023/06/26 08:31:24;;;;;;;4.70;2.20;;;24.90;95.30;;;;;;5064003;28;20041;-58
2023/06/26 08:33:49;;;;;;;6.53;2.47;;;24.80;94.90;;;;;;5064328;28;20040;-59
2023/06/26 08:36:15;;;;;;;19.40;3.15;;;24.60;95.00;;;;;;5066680;28;20168;-58
2023/06/26 08:38:41;;;;;;;8.85;2.38;;;24.40;95.30;;;;;;5061934;28;20346;-59
2023/06/26 08:41:07;;;;;;;8.07;2.33;;;24.40;95.60;;;;;;5063971;28;20129;-58
2023/06/26 08:43:34;;;;;;;5.07;2.40;;;24.40;95.50;;;;;;5070819;28;20048;-59
2023/06/26 08:46:00;;;;;;;9.90;3.00;;;24.30;95.40;;;;;;5060968;28;20047;-58
2023/06/26 08:48:26;;;;;;;11.93;2.70;;;24.30;95.50;;;;;;5070190;28;20041;-58
2023/06/26 08:50:57;;;;;;;7.38;3.00;;;24.00;94.50;;;;;;5071896;28;20094;-59
2023/06/26 08:53:41;;;;;;;7.30;2.50;;;23.80;94.80;;;;;;5061432;28;20497;-59
2023/06/26 08:56:08;;;;;;;7.50;2.85;;;23.80;95.30;;;;;;5070817;28;20185;-58
2023/06/26 08:58:37;;;;;;;11.38;3.28;;;24.20;95.50;;;;;;5073504;28;20134;-59
2023/06/26 09:01:04;;;;;;;9.25;3.05;;;24.30;95.30;;;;;;5064607;28;20043;-58
2023/06/26 09:03:31;;;;;;;8.02;2.90;;;24.40;95.00;;;;;;5061941;28;20048;-58
2023/06/26 09:05:57;;;;;;;11.68;3.20;;;24.20;94.80;;;;;;5061087;28;20052;-58
2023/06/26 09:08:23;;;;;;;11.23;3.30;;;24.10;95.10;;;;;;5062612;28;20060;-58
2023/06/26 09:10:48;;;;;;;8.73;3.13;;;24.00;95.40;;;;;;5068660;28;20047;-59
2023/06/26 09:13:14;;;;;;;14.75;3.20;;;24.00;95.60;;;;;;5065968;28;20051;-58
2023/06/26 09:15:44;;;;;;;66.05;6.00;;;23.90;95.70;;;;;;5065821;28;20512;-58
2023/06/26 09:18:09;;;;;;;8.80;3.05;;;23.90;96.20;;;;;;5069878;28;20055;-58
2023/06/26 09:20:36;;;;;;;5.60;2.58;;;24.10;96.40;;;;;;5070566;28;20068;-59
2023/06/26 09:23:02;;;;;;;8.10;3.50;;;24.30;95.90;;;;;;5065561;28;20053;-58
2023/06/26 09:25:28;;;;;;;7.13;2.88;;;24.30;95.50;;;;;;5065535;28;20052;-58
2023/06/26 09:27:55;;;;;;;14.88;3.53;;;24.30;95.30;;;;;;5061238;28;20037;-59
2023/06/26 09:30:21;;;;;;;12.00;3.03;;;24.50;95.40;;;;;;5062970;28;20045;-58
2023/06/26 09:32:47;;;;;;;6.88;2.72;;;24.50;94.90;;;;;;5074413;28;20499;-58
2023/06/26 09:35:13;;;;;;;7.72;2.92;;;24.40;94.60;;;;;;5067484;28;20051;-58
2023/06/26 09:37:39;;;;;;;8.15;2.55;;;24.40;94.50;;;;;;5059032;28;20709;-58
2023/06/26 09:40:06;;;;;;;12.02;3.00;;;24.20;94.60;;;;;;5062916;28;20047;-57
2023/06/26 09:42:32;;;;;;;7.40;2.80;;;24.10;94.70;;;;;;5064928;28;20049;-58
2023/06/26 09:44:57;;;;;;;13.00;3.05;;;24.10;94.80;;;;;;5069783;28;20054;-59
2023/06/26 09:47:23;;;;;;;17.58;3.53;;;24.00;94.60;;;;;;5063367;28;20068;-58
2023/06/26 09:49:50;;;;;;;8.00;3.45;;;23.90;94.50;;;;;;5069646;28;20798;-58
2023/06/26 09:52:16;;;;;;;15.85;3.25;;;23.80;94.30;;;;;;5064152;28;20044;-58
2023/06/26 09:54:46;;;;;;;6.00;2.90;;;23.70;94.50;;;;;;5058087;28;20047;-58
2023/06/26 09:57:13;;;;;;;11.88;3.00;;;23.80;94.80;;;;;;5069241;28;20155;-58
2023/06/26 09:59:42;;;;;;;8.25;2.90;;;24.00;95.00;;;;;;5062355;28;20060;-58
2023/06/26 10:02:08;;;;;;;11.30;2.60;;;24.20;94.30;;;;;;5060566;28;20069;-58
2023/06/26 10:04:36;;;;;;;7.97;2.63;;;24.30;93.80;;;;;;5063491;28;20048;-58
2023/06/26 10:07:04;;;;;;;9.60;2.67;;;24.40;93.20;;;;;;5061019;28;20049;-58
2023/06/26 10:09:31;;;;;;;12.60;2.60;;;24.40;93.30;;;;;;5062401;28;20045;-58
2023/06/26 10:11:57;;;;;;;7.82;2.35;;;24.60;92.70;;;;;;5059476;28;20090;-58
2023/06/26 10:14:43;;;;;;;11.82;2.70;;;24.70;91.70;;;;;;5060409;28;20071;-58
2023/06/26 10:17:18;;;;;;;9.93;2.65;;;24.70;92.00;;;;;;5060651;28;20052;-59
2023/06/26 10:19:45;;;;;;;9.40;2.70;;;24.50;92.00;;;;;;5069843;28;20044;-59
2023/06/26 10:22:14;;;;;;;7.32;2.58;;;24.30;92.20;;;;;;5060952;28;20568;-59
2023/06/26 10:24:41;;;;;;;8.52;2.15;;;24.40;92.00;;;;;;5065447;28;20060;-59
2023/06/26 10:27:20;;;;;;;7.10;2.78;;;24.30;91.30;;;;;;5070612;28;20119;-60
2023/06/26 10:29:55;;;;;;;10.52;2.42;;;24.30;91.10;;;;;;5068193;28;20140;-60
2023/06/26 10:32:24;;;;;;;13.47;2.73;;;24.30;91.40;;;;;;5070211;28;20084;-59
2023/06/26 10:34:51;;;;;;;10.23;2.80;;;24.20;91.40;;;;;;5065203;28;20045;-60
2023/06/26 10:37:16;;;;;;;8.32;2.30;;;24.20;91.00;;;;;;5062157;28;20040;-60
2023/06/26 10:39:54;;;;;;;23.67;3.03;;;24.20;91.10;;;;;;5060838;28;20051;-59
2023/06/26 10:42:34;;;;;;;16.92;2.58;;;24.20;91.30;;;;;;5060973;28;20084;-58
2023/06/26 10:45:11;;;;;;;10.75;2.50;;;24.30;90.80;;;;;;5062462;28;20496;-59
2023/06/26 10:47:36;;;;;;;6.07;2.40;;;24.20;91.10;;;;;;5068671;28;20041;-59
2023/06/26 10:50:24;;;;;;;12.07;2.55;;;24.20;91.10;;;;;;5063025;28;20524;-60
2023/06/26 10:53:25;;;;;;;8.23;2.35;;;24.30;91.30;;;;;;5060236;28;20033;-61
2023/06/26 10:56:01;;;;;;;9.77;2.63;;;24.30;91.20;;;;;;5058574;28;20051;-60
2023/06/26 10:58:39;;;;;;;7.50;2.55;;;24.20;91.40;;;;;;5060248;28;20091;-61
2023/06/26 11:01:11;;;;;;;9.98;2.60;;;24.00;91.40;;;;;;5066047;28;20128;-60
2023/06/26 11:03:38;;;;;;;14.50;2.40;;;24.00;91.50;;;;;;5057546;28;20097;-58
2023/06/26 11:06:11;;;;;;;11.27;2.17;;;23.90;91.30;;;;;;5064262;28;20047;-58
2023/06/26 11:08:49;;;;;;;10.05;2.08;;;23.90;91.10;;;;;;5064971;28;20053;-58
2023/06/26 11:11:16;;;;;;;10.10;2.22;;;23.90;90.60;;;;;;5064358;28;20076;-58
2023/06/26 11:13:42;;;;;;;11.73;2.30;;;24.00;91.60;;;;;;5067975;28;20100;-57
2023/06/26 11:16:08;;;;;;;6.53;2.20;;;24.00;91.20;;;;;;5070325;28;20036;-57
2023/06/26 11:18:34;;;;;;;10.75;2.45;;;24.10;91.10;;;;;;5065935;28;20129;-58
2023/06/26 11:21:07;;;;;;;6.95;2.10;;;24.30;90.90;;;;;;5072236;28;20029;-57
2023/06/26 11:23:35;;;;;;;11.60;2.80;;;24.40;90.60;;;;;;5072886;28;20092;-58
2023/06/26 11:26:21;;;;;;;11.43;2.65;;;24.40;90.80;;;;;;5070022;28;20040;-58
2023/06/26 11:28:56;;;;;;;14.35;2.92;;;24.50;90.20;;;;;;5063464;28;20056;-58
2023/06/26 11:31:39;;;;;;;13.13;2.17;;;24.40;90.10;;;;;;5067845;28;20120;-58
2023/06/26 11:34:11;;;;;;;7.03;1.98;;;24.30;89.70;;;;;;5067441;28;20045;-58
2023/06/26 11:36:42;;;;;;;8.02;2.15;;;24.30;89.70;;;;;;5062229;28;20657;-58
2023/06/26 11:39:08;;;;;;;25.95;2.63;;;24.40;90.10;;;;;;5061916;28;20090;-58
2023/06/26 11:41:36;;;;;;;11.98;2.30;;;24.50;90.20;;;;;;5074814;28;20048;-58
2023/06/26 11:44:06;;;;;;;9.15;2.10;;;24.70;90.00;;;;;;5072123;28;20036;-57
2023/06/26 11:46:34;;;;;;;29.35;2.95;;;24.90;89.90;;;;;;5069027;28;20056;-58
2023/06/26 11:49:02;;;;;;;20.00;2.50;;;25.10;89.40;;;;;;5074577;28;20048;-58
2023/06/26 11:51:28;;;;;;;7.65;1.75;;;25.30;88.10;;;;;;5061101;28;20044;-58
2023/06/26 11:53:54;;;;;;;9.93;1.90;;;25.40;85.70;;;;;;5062988;28;20167;-58
2023/06/26 11:56:22;;;;;;;13.80;2.17;;;25.40;85.80;;;;;;5070446;28;20071;-58
2023/06/26 11:59:11;;;;;;;39.40;2.97;;;25.50;85.80;;;;;;5069197;28;20055;-57
2023/06/26 12:01:41;;;;;;;19.58;2.03;;;25.50;82.40;;;;;;5070428;28;20064;-58
2023/06/26 12:04:10;;;;;;;12.90;1.95;;;25.40;84.10;;;;;;5062678;28;20076;-58
2023/06/26 12:06:38;;;;;;;34.53;3.38;;;25.20;84.80;;;;;;5069241;28;20047;-58
2023/06/26 12:09:12;;;;;;;37.65;3.42;;;25.10;85.30;;;;;;5069971;28;20040;-57
2023/06/26 12:11:43;;;;;;;18.30;2.40;;;25.00;85.10;;;;;;5065605;28;20041;-58
2023/06/26 12:14:10;;;;;;;13.82;2.00;;;24.90;85.40;;;;;;5065801;28;20047;-58
2023/06/26 12:16:36;;;;;;;13.65;2.53;;;24.70;85.50;;;;;;5066823;28;20100;-58
2023/06/26 12:19:04;;;;;;;21.67;2.63;;;24.70;85.60;;;;;;5067183;28;20057;-58
2023/06/26 12:21:40;;;;;;;10.10;1.88;;;24.70;85.90;;;;;;5064660;28;20396;-58
2023/06/26 12:24:07;;;;;;;7.07;1.92;;;24.80;86.10;;;;;;5064765;28;20053;-57
2023/06/26 12:26:33;;;;;;;11.35;2.08;;;24.80;85.00;;;;;;5061627;28;20044;-58
2023/06/26 12:29:13;;;;;;;13.77;1.85;;;24.80;85.00;;;;;;5065488;28;20045;-58
2023/06/26 12:31:48;;;;;;;10.48;1.95;;;24.80;83.80;;;;;;5068285;28;20096;-57
2023/06/26 12:34:17;;;;;;;18.70;1.98;;;24.70;84.80;;;;;;5070703;28;20056;-58
2023/06/26 12:36:48;;;;;;;6.80;1.88;;;24.70;84.00;;;;;;5067263;28;20044;-58
2023/06/26 12:39:21;;;;;;;19.95;2.13;;;24.80;83.40;;;;;;5061343;28;20501;-58
2023/06/26 12:42:16;;;;;;;10.23;1.90;;;25.00;84.00;;;;;;5065606;28;20067;-58
2023/06/26 12:44:41;;;;;;;5.75;1.40;;;25.20;83.60;;;;;;5064753;28;20044;-58
2023/06/26 12:47:08;;;;;;;34.13;3.03;;;25.50;83.00;;;;;;5062357;28;20405;-58